Extreme high temperature From: 23-07-2018 05:00 Until: 24-07-2018 01:00 warning for: Extreme high temperature Level: Yellow info button
suomi:
Hellevaroitus: Lähivuorokauden aikana on odotettavissa tukalaa hellettä.

svenska:
Varning för värmebölja: Under det närmaste dygnet är den svåra hettan att vänta.

english:
Heat wave warning: Warm weather is expected during the coming 24 hours. 


Thunder radar more information blitzortung!


Löydät sääaseman tiedot myös:

European Weather Network

Finland Weather Exchange

Weather Underground

AWEKAS



Weather Underground säähistoriasivu

Päivittäin yhteenveto Kesäkuu 22, 2017 Yksiköt:  Englantilaiset    Metriset   Molemmat
« Edellinen Päivä
Seuraava Päivä »
Päivittäin Viikoittain Kuukausittain Vuosittain Mukautettu
  Korkea: Matala: Keskiarvo:
Lämpötila: TemperatureC °F 6.8 °F 10 °F
Kastepiste: DewpointC °F 4.1 °F 6.3 °F
Kosteus: Humidity % 63 % 78 %
Tuulen nopeus: WindSpeedKMH mph 0.0 mph 0.5 mph
Tuulenpuuska: WindSpeedGustKMH mph - -
Tuuli:- - West
Ilmanpaine: PressurehPa in 1002.3 in -
Sade: 0.0 in    
Historical Graphs
 
 
Taulukkotiedot Kesäkuu 22, 2017
Aika Lämpötila Kastepiste Ilmanpaine Tuuli Tuulen nopeus Tuulenpuuska Kosteus Sademäärä (tunneittain)
TemperatureC °F DewpointC °F PressurehPa in Calm     Humidity % HourlyPrecipMM in
00:00 10.4 °F 7.9 °F 1002.6 in Calm     84 % 0.0 in
00:15 10.1 °F 7.6 °F 1002.6 in Calm     85 % 0.0 in
00:30 9.7 °F 7.5 °F 1002.6 in Calm     86 % 0.0 in
00:45 9.2 °F 7.1 °F 1002.6 in Calm     87 % 0.0 in
01:00 8.8 °F 7.1 °F 1002.3 in Calm     89 % 0.0 in
01:15 8.6 °F 7.0 °F 1002.3 in Calm     90 % 0.0 in
01:30 8.6 °F 7.2 °F 1002.3 in Calm     91 % 0.0 in
01:45 8.7 °F 7.3 °F 1002.3 in Calm     91 % 0.0 in
02:00 8.6 °F 7.2 °F 1002.3 in Calm   3.2 mph 91 % 0.0 in
02:15 8.4 °F 7.1 °F 1002.3 in Calm   1.6 mph 91 % 0.0 in
02:30 8.4 °F 7.2 °F 1002.3 in Calm   3.2 mph 92 % 0.0 in
02:45 8.5 °F 7.3 °F 1002.3 in Calm   1.6 mph 92 % 0.0 in
03:00 8.6 °F 7.2 °F 1002.3 in Calm   6.4 mph 91 % 0.0 in
03:15 8.4 °F 7.1 °F 1002.3 in Calm   4.8 mph 91 % 0.0 in
03:30 8.1 °F 6.7 °F 1002.3 in Calm   3.2 mph 91 % 0.0 in
03:45 7.7 °F 6.5 °F 1002.3 in Calm     92 % 0.0 in
04:00 7.4 °F 6.2 °F 1002.3 in Calm   1.6 mph 92 % 0.0 in
04:15 7.2 °F 6.2 °F 1002.3 in Calm     93 % 0.0 in
04:30 7.1 °F 6.0 °F 1002.3 in Calm     93 % 0.0 in
04:45 6.9 °F 5.8 °F 1002.3 in Calm     93 % 0.0 in
05:00 6.8 °F 5.9 °F 1002.3 in Calm     94 % 0.0 in
05:15 6.8 °F 5.9 °F 1002.3 in Calm     94 % 0.0 in
05:30 6.8 °F 5.9 °F 1002.3 in Calm     94 % 0.0 in
05:45 6.8 °F 6.1 °F 1002.3 in Calm     95 % 0.0 in
06:00 7.4 °F 6.8 °F 1002.3 in Calm   4.8 mph 96 % 0.0 in
06:15 8.3 °F 7.5 °F 1002.3 in NW 1.6 mph 6.4 mph 95 % 0.0 in
06:30 9.1 °F 7.9 °F 1002.3 in NW 3.2 mph 9.7 mph 92 % 0.0 in
06:45 9.6 °F 8.1 °F 1002.3 in NW 1.6 mph 6.4 mph 90 % 0.0 in
07:00 10.1 °F 8.3 °F 1002.3 in NW 1.6 mph 9.7 mph 89 % 0.0 in
07:15 10.2 °F 8.3 °F 1002.3 in Calm   4.8 mph 88 % 0.0 in
07:30 10.4 °F 8.3 °F 1002.3 in WNW 3.2 mph 8.0 mph 87 % 0.0 in
07:45 10.6 °F 8.8 °F 1002.3 in Calm   1.6 mph 89 % 0.0 in
08:00 10.9 °F 9.0 °F 1002.6 in Calm   3.2 mph 88 % 0.0 in
08:15 11.4 °F 8.8 °F 1002.6 in Calm   3.2 mph 84 % 0.0 in
08:30 11.3 °F 8.7 °F 1002.6 in Calm     84 % 0.0 in
08:45 11.5 °F 8.5 °F 1002.6 in Calm     82 % 0.0 in
09:00 11.6 °F 8.1 °F 1002.6 in NW 1.6 mph 6.4 mph 79 % 0.0 in
09:15 11.6 °F 8.3 °F 1002.6 in WNW 1.6 mph 8.0 mph 80 % 0.0 in
09:30 11.8 °F 8.1 °F 1002.3 in NW 1.6 mph 11.3 mph 78 % 0.0 in
09:45 11.9 °F 7.8 °F 1002.3 in NNW 1.6 mph 11.3 mph 76 % 0.0 in
10:00 12.3 °F 8.2 °F 1002.3 in Calm   4.8 mph 76 % 0.0 in
10:15 12.3 °F 8.2 °F 1002.3 in NW 1.6 mph 8.0 mph 76 % 0.0 in
10:30 12.3 °F 8.2 °F 1002.3 in Calm   4.8 mph 76 % 0.0 in
10:45 12.4 °F 7.9 °F 1002.3 in Calm   6.4 mph 74 % 0.0 in
11:00 12.1 °F 7.4 °F 1002.6 in NW 1.6 mph 8.0 mph 73 % 0.0 in
11:15 12.1 °F 7.4 °F 1002.3 in NW 1.6 mph 8.0 mph 73 % 0.0 in
11:30 12.7 °F 7.1 °F 1002.3 in NNW 1.6 mph 8.0 mph 69 % 0.0 in
11:45 12.6 °F 7.6 °F 1002.3 in Calm   8.0 mph 72 % 0.0 in
12:00 12.7 °F 7.7 °F 1002.3 in NNW 1.6 mph 8.0 mph 72 % 0.0 in
12:15 12.7 °F 7.4 °F 1002.6 in NW 1.6 mph 9.7 mph 70 % 0.0 in
12:30 13.6 °F 8.0 °F 1002.3 in NNW 1.6 mph 8.0 mph 69 % 0.0 in
12:45 13.1 °F 7.8 °F 1002.6 in North 3.2 mph 6.4 mph 70 % 0.0 in
13:00 12.6 °F 7.9 °F 1002.6 in North 1.6 mph 8.0 mph 73 % 0.0 in
13:15 12.3 °F 7.8 °F 1002.6 in North 3.2 mph 11.3 mph 74 % 0.0 in
13:30 12.6 °F 7.7 °F 1002.9 in North 3.2 mph 9.7 mph 72 % 0.0 in
13:45 11.9 °F 6.4 °F 1002.9 in North 3.2 mph 9.7 mph 69 % 0.0 in
14:00 12.0 °F 6.1 °F 1003.3 in North 4.8 mph 11.3 mph 67 % 0.0 in
14:15 11.7 °F 6.2 °F 1003.3 in North 4.8 mph 12.9 mph 69 % 0.0 in
14:30 12.1 °F 6.2 °F 1003.3 in Calm     67 % 0.0 in
14:45 11.7 °F 5.7 °F 1003.3 in Calm     67 % 0.0 in
15:00 11.4 °F 5.7 °F 1003.6 in Calm     68 % 0.0 in
15:15 11.7 °F 5.5 °F 1003.6 in Calm     66 % 0.0 in
15:30 11.6 °F 5.0 °F 1003.6 in Calm     64 % 0.0 in
15:45 11.9 °F 5.3 °F 1003.6 in Calm     64 % 0.0 in
16:00 11.7 °F 5.4 °F 1003.9 in Calm     65 % 0.0 in
16:15 10.9 °F 5.3 °F 1003.9 in Calm     68 % 0.0 in
16:30 11.9 °F 5.1 °F 1003.9 in Calm     63 % 0.0 in
16:45 10.8 °F 4.7 °F 1003.9 in Calm     66 % 0.0 in
17:00 11.4 °F 5.1 °F 1003.9 in Calm     65 % 0.0 in
17:15 11.1 °F 5.2 °F 1003.9 in Calm     67 % 0.0 in
17:30 11.0 °F 4.9 °F 1004.3 in Calm     66 % 0.0 in
17:45 10.0 °F 6.0 °F 1004.6 in Calm     76 % 0.0 in
18:00 9.4 °F 6.0 °F 1004.3 in Calm     79 % 0.0 in
18:15 10.4 °F 5.6 °F 1004.3 in Calm     72 % 0.0 in
18:30 10.4 °F 5.4 °F 1004.6 in Calm     71 % 0.0 in
18:45 10.0 °F 4.8 °F 1004.6 in Calm     70 % 0.0 in
19:00 10.2 °F 4.8 °F 1004.6 in Calm     69 % 0.0 in
19:15 10.8 °F 4.7 °F 1004.6 in Calm     66 % 0.0 in
19:30 10.8 °F 4.2 °F 1004.3 in Calm     64 % 0.0 in
19:45 10.5 °F 4.8 °F 1004.6 in Calm     68 % 0.0 in
20:00 11.1 °F 4.3 °F 1004.6 in Calm     63 % 0.0 in
20:15 10.7 °F 4.1 °F 1004.6 in Calm     64 % 0.0 in
20:30 10.3 °F 4.3 °F 1004.6 in Calm     66 % 0.0 in
20:45 10.1 °F 4.7 °F 1004.6 in Calm     69 % 0.0 in
21:00 9.8 °F 4.6 °F 1004.6 in Calm     70 % 0.0 in
21:15 9.5 °F 4.3 °F 1004.6 in Calm     70 % 0.0 in
21:30 9.2 °F 4.4 °F 1004.6 in Calm     72 % 0.0 in
21:45 9.0 °F 4.4 °F 1005.0 in Calm     73 % 0.0 in
22:00 8.9 °F 4.6 °F 1005.0 in Calm     74 % 0.0 in
22:15 8.6 °F 4.4 °F 1005.0 in Calm     75 % 0.0 in
22:30 8.2 °F 4.2 °F 1005.0 in Calm     76 % 0.0 in
22:45 7.8 °F 4.2 °F 1005.0 in Calm   3.2 mph 78 % 0.0 in
23:00 7.4 °F 4.2 °F 1005.3 in Calm   3.2 mph 80 % 0.0 in
23:15 7.2 °F 4.4 °F 1005.3 in Calm   4.8 mph 82 % 0.0 in
23:30 7.1 °F 4.4 °F 1005.3 in Calm   3.2 mph 83 % 0.0 in
23:45 7.0 °F 4.5 °F 1005.3 in Calm   4.8 mph 84 % 0.0 in
Esan sääasema
Terveisin Weather Underground - 2.75 mb

Alkuperäinen skripti  Jim McMurry - jmcmurry@mwt.net Sovitettu myös templatelle  Wim van der Kuil - Leuven-Template.eu

Laitteet joita käytämme:

Sääasema
Davis VP2

Sääasemaohjelma
Cumulus

Sääaseman tietokone
Asus EeePC

Palveluntarjoaja
Suncomet

Davis VP2

Cumulus

Asus EeePC

Suncomet